Fola, West Virginia
Current Conditions -  °F | °C
As of 10:54 PM on Monday 22 Dec 2014 (Local Time) from KCRW Reporting Station
Broken Clouds Broken Clouds  
Wind Chill:   Ceiling: 20000
Heat Index:   Visibility: 10mi
Dew Point:   Wind: 8mph
Humidity: 66%   Direction: 130°SE
Pressure: 29.86"   Gusts: NA
Location:  38.3787°N, 81.1092°W
Report Text: KCRW 230354Z 13007KT 10SM FEW080 BKN200 09/03 A2986 RMK AO2 SLP112 T00890028
Loading
Personal Weather Stations






























Interactive Weather Map New forecast layout! Learn more

10-Day Weather Forecast

Advertisements
Track Severe Weather on mobile